Главная страница
METAR-TAF:

METAR-TAF

Аэропорты :

Бухарест, Румыния

Международный аэропорт имени Анри Коанды

широта: 44-33N, долгота: 026-06E, высота над уровнем моря: 95 м

Текущие метеонаблюдения

Эта сводка был подготовлена 27 минут назад, в 07:00 UTC
Ветер 7 Узел от восточный
Температура 20°C
Влажность 43%
Давление 1015 hPa
Видимость 10 км и более
Нет облачности ниже 1500 м, и нет кучево-дождевой облачности

METAR: LROP 230700Z 10007KT CAVOK 20/07 Q1015 NOSIG

Время: 10:27 (07:27 UTC)

Прогноз

Эта сводка был подготовлена 2 часа и 27 минут назад, в 05:00 UTC
Прогноз действительный с 23-го 06 UTC до 24-го 06 UTC
Ветер 4 Узел переменных направлений
Видимость 10 км и более
Нет облачности ниже 1500 м, и нет кучево-дождевой облачности
временами
С 23-го 14 UTC до 23-го 18 UTC
Отдельные облака на высоте 5000 фута, Кучево-дождевые.

TAF: LROP 230500Z 2306/2406 VRB04KT CAVOK TEMPO 2314/2318 SCT050CB

Метеонаблюдения и прогнозы для более 4000 аэропортов (сводки METAR и TAF).

Имеющиеся станции представлены на карте желтыми и красными точками.

Чтобы увидеть название станции, наведите на нее мышь.

Затем щелкните, чтобы увидеть метеонаблюдения и метеопрогнозы.

Управление картой: чтобы увеличить масштаб, щелкните зеленые кнопки с черным крестиком; чтобы уменьшить масштаб, щелкните зеленую кнопку с тире; для просмотра соседних карт щелкайте зеленые стрелки.


METAR-TAF: